Main page
METAR-TAF:

METAR-TAF

Airports :

Gilze-Rijen Air Base

Gilze-Rijen, Netherlands

latitude: 51-34N, longitude: 004-56E, elevation: 15 m

Current weather observation

The report was made 31 minutes ago, at 22:55 UTC
Wind 11 kt from the East, varying between Northeast and Southeast
Temperature 16°C
Humidity 36%
Pressure 1003 hPa
Visibility 10 km or more

METAR: EHGR 222255Z AUTO 08011KT 050V130 9999 NCD 16/01 Q1003 BLU

Time: 01:26 (23:26 UTC)


TAF: missing

Weather observations and forecasts of more than 4000 airports (METAR and TAF reports).

The available stations are represented by yellow and red dots on the map.

Hover mouse over dot to see the name of the station.

Then click to see weather observations and forecasts.

To change the map : click on the green buttons with a black cross to zoom in, on the green button with a dash to zoom out, or on the green arrows for adjacent maps.


METAR-TAF: